sensor_id;sensor_type;location;lat;lon;timestamp;P1;durP1;ratioP1;P2;durP2;ratioP2
49854;SDS011;35752;52.164;21.244;2022-07-29T00:00:13;8.15;;;4.90;;
49854;SDS011;35752;52.164;21.244;2022-07-29T00:02:39;8.80;;;5.25;;
49854;SDS011;35752;52.164;21.244;2022-07-29T00:05:05;9.00;;;5.32;;
49854;SDS011;35752;52.164;21.244;2022-07-29T00:07:32;12.15;;;5.50;;
49854;SDS011;35752;52.164;21.244;2022-07-29T00:09:58;10.65;;;5.93;;
49854;SDS011;35752;52.164;21.244;2022-07-29T00:12:24;7.97;;;5.95;;
49854;SDS011;35752;52.164;21.244;2022-07-29T00:14:50;7.43;;;4.88;;
49854;SDS011;35752;52.164;21.244;2022-07-29T00:17:16;10.60;;;5.45;;
49854;SDS011;35752;52.164;21.244;2022-07-29T00:19:41;10.18;;;5.55;;
49854;SDS011;35752;52.164;21.244;2022-07-29T00:22:07;13.82;;;6.03;;
49854;SDS011;35752;52.164;21.244;2022-07-29T00:24:33;7.93;;;5.13;;
49854;SDS011;35752;52.164;21.244;2022-07-29T00:26:58;9.32;;;5.45;;
49854;SDS011;35752;52.164;21.244;2022-07-29T00:29:24;8.70;;;4.90;;
49854;SDS011;35752;52.164;21.244;2022-07-29T00:31:50;10.70;;;5.13;;
49854;SDS011;35752;52.164;21.244;2022-07-29T00:34:16;12.23;;;5.45;;
49854;SDS011;35752;52.164;21.244;2022-07-29T00:37:00;7.80;;;4.95;;
49854;SDS011;35752;52.164;21.244;2022-07-29T00:39:25;9.23;;;5.05;;
49854;SDS011;35752;52.164;21.244;2022-07-29T00:41:51;9.18;;;5.32;;
49854;SDS011;35752;52.164;21.244;2022-07-29T00:44:17;7.22;;;4.85;;
49854;SDS011;35752;52.164;21.244;2022-07-29T00:46:43;7.13;;;4.90;;
49854;SDS011;35752;52.164;21.244;2022-07-29T00:49:08;7.78;;;4.40;;
49854;SDS011;35752;52.164;21.244;2022-07-29T00:51:35;6.93;;;5.15;;
49854;SDS011;35752;52.164;21.244;2022-07-29T00:54:02;9.52;;;5.45;;
49854;SDS011;35752;52.164;21.244;2022-07-29T00:56:32;8.43;;;4.38;;
49854;SDS011;35752;52.164;21.244;2022-07-29T00:58:58;6.97;;;4.40;;
49854;SDS011;35752;52.164;21.244;2022-07-29T01:01:25;9.13;;;4.40;;
49854;SDS011;35752;52.164;21.244;2022-07-29T01:03:52;9.25;;;4.53;;
49854;SDS011;35752;52.164;21.244;2022-07-29T01:06:18;6.95;;;3.72;;
49854;SDS011;35752;52.164;21.244;2022-07-29T01:08:45;5.78;;;3.95;;
49854;SDS011;35752;52.164;21.244;2022-07-29T01:11:12;8.07;;;3.90;;
49854;SDS011;35752;52.164;21.244;2022-07-29T01:13:38;7.38;;;4.05;;
49854;SDS011;35752;52.164;21.244;2022-07-29T01:16:10;7.57;;;3.40;;
49854;SDS011;35752;52.164;21.244;2022-07-29T01:18:44;6.90;;;3.53;;
49854;SDS011;35752;52.164;21.244;2022-07-29T01:29:53;7.57;;;3.25;;
49854;SDS011;35752;52.164;21.244;2022-07-29T01:32:12;6.18;;;3.40;;
49854;SDS011;35752;52.164;21.244;2022-07-29T01:37:18;10.60;;;3.58;;
49854;SDS011;35752;52.164;21.244;2022-07-29T01:39:47;8.30;;;3.70;;
49854;SDS011;35752;52.164;21.244;2022-07-29T01:42:16;6.00;;;3.00;;
49854;SDS011;35752;52.164;21.244;2022-07-29T01:47:23;5.30;;;3.13;;
49854;SDS011;35752;52.164;21.244;2022-07-29T01:49:54;6.40;;;2.83;;
49854;SDS011;35752;52.164;21.244;2022-07-29T01:52:26;6.47;;;3.35;;
49854;SDS011;35752;52.164;21.244;2022-07-29T01:54:59;6.43;;;3.28;;
49854;SDS011;35752;52.164;21.244;2022-07-29T01:57:31;4.20;;;2.75;;
49854;SDS011;35752;52.164;21.244;2022-07-29T02:00:00;4.57;;;2.30;;
49854;SDS011;35752;52.164;21.244;2022-07-29T02:02:28;4.13;;;2.80;;
49854;SDS011;35752;52.164;21.244;2022-07-29T02:04:56;12.55;;;2.85;;
49854;SDS011;35752;52.164;21.244;2022-07-29T02:07:25;4.78;;;2.65;;
49854;SDS011;35752;52.164;21.244;2022-07-29T02:09:54;3.75;;;2.60;;
49854;SDS011;35752;52.164;21.244;2022-07-29T02:12:21;5.43;;;2.35;;
49854;SDS011;35752;52.164;21.244;2022-07-29T02:14:51;4.85;;;2.50;;
49854;SDS011;35752;52.164;21.244;2022-07-29T02:17:26;7.05;;;3.15;;
49854;SDS011;35752;52.164;21.244;2022-07-29T02:19:56;5.38;;;3.33;;
49854;SDS011;35752;52.164;21.244;2022-07-29T02:22:25;5.78;;;3.20;;
49854;SDS011;35752;52.164;21.244;2022-07-29T02:24:54;5.57;;;2.65;;
49854;SDS011;35752;52.164;21.244;2022-07-29T02:27:21;4.57;;;2.17;;
49854;SDS011;35752;52.164;21.244;2022-07-29T02:29:48;5.78;;;2.53;;
49854;SDS011;35752;52.164;21.244;2022-07-29T02:32:16;7.22;;;2.75;;
49854;SDS011;35752;52.164;21.244;2022-07-29T02:34:42;3.53;;;2.67;;
49854;SDS011;35752;52.164;21.244;2022-07-29T02:37:09;4.05;;;2.88;;
49854;SDS011;35752;52.164;21.244;2022-07-29T02:39:36;5.72;;;3.35;;
49854;SDS011;35752;52.164;21.244;2022-07-29T02:42:05;7.68;;;3.00;;
49854;SDS011;35752;52.164;21.244;2022-07-29T02:44:33;5.77;;;2.33;;
49854;SDS011;35752;52.164;21.244;2022-07-29T02:49:57;7.85;;;2.88;;
49854;SDS011;35752;52.164;21.244;2022-07-29T02:52:34;6.68;;;2.88;;
49854;SDS011;35752;52.164;21.244;2022-07-29T02:55:14;5.60;;;2.65;;
49854;SDS011;35752;52.164;21.244;2022-07-29T02:57:54;11.05;;;2.58;;
49854;SDS011;35752;52.164;21.244;2022-07-29T03:00:34;5.13;;;2.75;;
49854;SDS011;35752;52.164;21.244;2022-07-29T03:03:03;4.13;;;2.50;;
49854;SDS011;35752;52.164;21.244;2022-07-29T03:05:32;4.77;;;3.00;;
49854;SDS011;35752;52.164;21.244;2022-07-29T03:08:00;7.25;;;2.72;;
49854;SDS011;35752;52.164;21.244;2022-07-29T03:10:28;3.35;;;2.30;;
49854;SDS011;35752;52.164;21.244;2022-07-29T03:12:55;3.20;;;1.98;;
49854;SDS011;35752;52.164;21.244;2022-07-29T03:15:22;4.03;;;2.35;;
49854;SDS011;35752;52.164;21.244;2022-07-29T03:17:49;5.60;;;2.67;;
49854;SDS011;35752;52.164;21.244;2022-07-29T03:20:15;5.97;;;2.65;;
49854;SDS011;35752;52.164;21.244;2022-07-29T03:22:42;6.50;;;2.63;;
49854;SDS011;35752;52.164;21.244;2022-07-29T03:25:15;5.22;;;2.28;;
49854;SDS011;35752;52.164;21.244;2022-07-29T03:27:42;6.07;;;2.55;;
49854;SDS011;35752;52.164;21.244;2022-07-29T03:30:09;6.15;;;2.40;;
49854;SDS011;35752;52.164;21.244;2022-07-29T03:32:36;6.68;;;2.10;;
49854;SDS011;35752;52.164;21.244;2022-07-29T03:35:02;3.92;;;2.40;;
49854;SDS011;35752;52.164;21.244;2022-07-29T03:37:29;6.47;;;2.22;;
49854;SDS011;35752;52.164;21.244;2022-07-29T03:39:55;3.65;;;2.28;;
49854;SDS011;35752;52.164;21.244;2022-07-29T03:42:26;4.57;;;2.30;;
49854;SDS011;35752;52.164;21.244;2022-07-29T03:44:55;3.60;;;1.88;;
49854;SDS011;35752;52.164;21.244;2022-07-29T03:47:25;4.53;;;1.92;;
49854;SDS011;35752;52.164;21.244;2022-07-29T03:49:54;5.90;;;2.83;;
49854;SDS011;35752;52.164;21.244;2022-07-29T03:52:25;4.78;;;2.45;;
49854;SDS011;35752;52.164;21.244;2022-07-29T03:54:51;5.50;;;2.22;;
49854;SDS011;35752;52.164;21.244;2022-07-29T03:57:18;3.80;;;1.98;;
49854;SDS011;35752;52.164;21.244;2022-07-29T03:59:48;8.18;;;2.40;;
49854;SDS011;35752;52.164;21.244;2022-07-29T04:02:16;2.63;;;1.77;;
49854;SDS011;35752;52.164;21.244;2022-07-29T04:04:42;3.83;;;2.05;;
49854;SDS011;35752;52.164;21.244;2022-07-29T04:07:08;3.63;;;2.00;;
49854;SDS011;35752;52.164;21.244;2022-07-29T04:09:37;4.25;;;1.70;;
49854;SDS011;35752;52.164;21.244;2022-07-29T04:12:03;7.07;;;1.98;;
49854;SDS011;35752;52.164;21.244;2022-07-29T04:14:30;6.00;;;1.67;;
49854;SDS011;35752;52.164;21.244;2022-07-29T04:16:57;4.43;;;1.55;;
49854;SDS011;35752;52.164;21.244;2022-07-29T04:19:23;3.70;;;1.80;;
49854;SDS011;35752;52.164;21.244;2022-07-29T04:21:49;3.22;;;1.25;;
49854;SDS011;35752;52.164;21.244;2022-07-29T04:24:16;4.10;;;1.63;;
49854;SDS011;35752;52.164;21.244;2022-07-29T04:26:42;3.00;;;1.50;;
49854;SDS011;35752;52.164;21.244;2022-07-29T04:29:08;3.47;;;1.40;;
49854;SDS011;35752;52.164;21.244;2022-07-29T04:31:34;4.97;;;1.58;;
49854;SDS011;35752;52.164;21.244;2022-07-29T04:33:59;3.25;;;1.33;;
49854;SDS011;35752;52.164;21.244;2022-07-29T04:36:25;3.22;;;1.40;;
49854;SDS011;35752;52.164;21.244;2022-07-29T04:38:51;3.58;;;1.10;;
49854;SDS011;35752;52.164;21.244;2022-07-29T04:41:16;4.97;;;1.63;;
49854;SDS011;35752;52.164;21.244;2022-07-29T04:43:42;3.42;;;1.13;;
49854;SDS011;35752;52.164;21.244;2022-07-29T04:46:08;2.45;;;0.90;;
49854;SDS011;35752;52.164;21.244;2022-07-29T04:48:33;3.78;;;1.00;;
49854;SDS011;35752;52.164;21.244;2022-07-29T04:50:59;3.05;;;1.15;;
49854;SDS011;35752;52.164;21.244;2022-07-29T04:53:25;1.65;;;1.02;;
49854;SDS011;35752;52.164;21.244;2022-07-29T04:55:51;1.98;;;0.90;;
49854;SDS011;35752;52.164;21.244;2022-07-29T04:58:16;4.40;;;1.20;;
49854;SDS011;35752;52.164;21.244;2022-07-29T05:00:42;4.13;;;1.23;;
49854;SDS011;35752;52.164;21.244;2022-07-29T05:03:08;2.75;;;1.20;;
49854;SDS011;35752;52.164;21.244;2022-07-29T05:05:33;2.58;;;1.08;;
49854;SDS011;35752;52.164;21.244;2022-07-29T05:07:59;3.53;;;0.82;;
49854;SDS011;35752;52.164;21.244;2022-07-29T05:10:25;4.00;;;0.90;;
49854;SDS011;35752;52.164;21.244;2022-07-29T05:12:51;3.50;;;0.90;;
49854;SDS011;35752;52.164;21.244;2022-07-29T05:15:17;5.18;;;1.10;;
49854;SDS011;35752;52.164;21.244;2022-07-29T05:17:43;1.75;;;0.80;;
49854;SDS011;35752;52.164;21.244;2022-07-29T05:20:09;3.45;;;0.93;;
49854;SDS011;35752;52.164;21.244;2022-07-29T05:22:35;3.50;;;1.02;;
49854;SDS011;35752;52.164;21.244;2022-07-29T05:25:01;3.20;;;1.00;;
49854;SDS011;35752;52.164;21.244;2022-07-29T05:27:28;2.15;;;0.80;;
49854;SDS011;35752;52.164;21.244;2022-07-29T05:29:54;4.93;;;0.90;;
49854;SDS011;35752;52.164;21.244;2022-07-29T05:32:19;4.30;;;1.00;;
49854;SDS011;35752;52.164;21.244;2022-07-29T05:34:45;2.10;;;0.57;;
49854;SDS011;35752;52.164;21.244;2022-07-29T05:37:11;2.60;;;0.63;;
49854;SDS011;35752;52.164;21.244;2022-07-29T05:39:38;2.92;;;0.93;;
49854;SDS011;35752;52.164;21.244;2022-07-29T05:42:08;2.60;;;0.75;;
49854;SDS011;35752;52.164;21.244;2022-07-29T05:44:38;6.40;;;0.82;;
49854;SDS011;35752;52.164;21.244;2022-07-29T05:47:04;3.17;;;0.63;;
49854;SDS011;35752;52.164;21.244;2022-07-29T05:49:31;3.85;;;0.75;;
49854;SDS011;35752;52.164;21.244;2022-07-29T05:51:57;3.33;;;1.10;;
49854;SDS011;35752;52.164;21.244;2022-07-29T05:54:23;2.30;;;0.70;;
49854;SDS011;35752;52.164;21.244;2022-07-29T05:56:49;3.20;;;0.50;;
49854;SDS011;35752;52.164;21.244;2022-07-29T05:59:14;2.97;;;0.40;;
49854;SDS011;35752;52.164;21.244;2022-07-29T06:01:40;1.27;;;0.43;;
49854;SDS011;35752;52.164;21.244;2022-07-29T06:04:06;9.95;;;0.98;;
49854;SDS011;35752;52.164;21.244;2022-07-29T06:06:32;3.35;;;0.52;;
49854;SDS011;35752;52.164;21.244;2022-07-29T06:08:59;3.72;;;0.77;;
49854;SDS011;35752;52.164;21.244;2022-07-29T06:11:25;1.48;;;0.40;;
49854;SDS011;35752;52.164;21.244;2022-07-29T06:13:50;2.25;;;0.50;;
49854;SDS011;35752;52.164;21.244;2022-07-29T06:16:16;1.63;;;0.40;;
49854;SDS011;35752;52.164;21.244;2022-07-29T06:18:42;5.07;;;0.45;;
49854;SDS011;35752;52.164;21.244;2022-07-29T06:21:08;1.95;;;0.50;;
49854;SDS011;35752;52.164;21.244;2022-07-29T06:23:37;6.25;;;0.60;;
49854;SDS011;35752;52.164;21.244;2022-07-29T06:26:04;2.15;;;0.30;;
49854;SDS011;35752;52.164;21.244;2022-07-29T06:28:31;4.80;;;0.47;;
49854;SDS011;35752;52.164;21.244;2022-07-29T06:30:57;5.07;;;0.65;;
49854;SDS011;35752;52.164;21.244;2022-07-29T06:33:23;0.60;;;0.30;;
49854;SDS011;35752;52.164;21.244;2022-07-29T06:35:49;2.47;;;0.70;;
49854;SDS011;35752;52.164;21.244;2022-07-29T06:38:15;2.92;;;0.30;;
49854;SDS011;35752;52.164;21.244;2022-07-29T06:40:41;3.90;;;0.47;;
49854;SDS011;35752;52.164;21.244;2022-07-29T06:43:34;3.38;;;0.40;;
49854;SDS011;35752;52.164;21.244;2022-07-29T06:46:07;2.70;;;0.38;;
49854;SDS011;35752;52.164;21.244;2022-07-29T06:48:40;1.08;;;0.22;;
49854;SDS011;35752;52.164;21.244;2022-07-29T06:51:07;1.33;;;0.45;;
49854;SDS011;35752;52.164;21.244;2022-07-29T06:53:34;3.22;;;0.40;;
49854;SDS011;35752;52.164;21.244;2022-07-29T06:56:00;3.47;;;0.30;;
49854;SDS011;35752;52.164;21.244;2022-07-29T06:58:28;4.25;;;0.43;;
49854;SDS011;35752;52.164;21.244;2022-07-29T07:00:54;1.05;;;0.50;;
49854;SDS011;35752;52.164;21.244;2022-07-29T07:03:20;2.30;;;0.63;;
49854;SDS011;35752;52.164;21.244;2022-07-29T07:05:47;2.35;;;0.20;;
49854;SDS011;35752;52.164;21.244;2022-07-29T07:08:13;1.02;;;0.52;;
49854;SDS011;35752;52.164;21.244;2022-07-29T07:10:41;1.10;;;0.30;;
49854;SDS011;35752;52.164;21.244;2022-07-29T07:13:07;1.40;;;0.30;;
49854;SDS011;35752;52.164;21.244;2022-07-29T07:15:35;7.88;;;1.15;;
49854;SDS011;35752;52.164;21.244;2022-07-29T07:18:01;2.97;;;0.68;;
49854;SDS011;35752;52.164;21.244;2022-07-29T07:20:27;1.80;;;0.30;;
49854;SDS011;35752;52.164;21.244;2022-07-29T07:22:53;3.67;;;0.47;;
49854;SDS011;35752;52.164;21.244;2022-07-29T07:25:19;2.30;;;0.43;;
49854;SDS011;35752;52.164;21.244;2022-07-29T07:27:45;1.85;;;0.40;;
49854;SDS011;35752;52.164;21.244;2022-07-29T07:30:11;0.82;;;0.20;;
49854;SDS011;35752;52.164;21.244;2022-07-29T07:32:37;3.85;;;1.05;;
49854;SDS011;35752;52.164;21.244;2022-07-29T07:35:03;1.17;;;0.40;;
49854;SDS011;35752;52.164;21.244;2022-07-29T07:37:30;2.50;;;0.52;;
49854;SDS011;35752;52.164;21.244;2022-07-29T07:39:56;3.90;;;0.55;;
49854;SDS011;35752;52.164;21.244;2022-07-29T07:42:25;1.00;;;0.40;;
49854;SDS011;35752;52.164;21.244;2022-07-29T07:44:51;2.10;;;0.43;;
49854;SDS011;35752;52.164;21.244;2022-07-29T07:47:17;1.50;;;0.43;;
49854;SDS011;35752;52.164;21.244;2022-07-29T07:49:48;2.15;;;0.30;;
49854;SDS011;35752;52.164;21.244;2022-07-29T07:52:18;2.35;;;0.40;;
49854;SDS011;35752;52.164;21.244;2022-07-29T07:54:45;2.08;;;0.40;;
49854;SDS011;35752;52.164;21.244;2022-07-29T07:57:11;2.70;;;0.52;;
49854;SDS011;35752;52.164;21.244;2022-07-29T07:59:38;3.40;;;0.60;;
49854;SDS011;35752;52.164;21.244;2022-07-29T08:02:05;2.78;;;0.43;;
49854;SDS011;35752;52.164;21.244;2022-07-29T08:04:31;1.10;;;0.32;;
49854;SDS011;35752;52.164;21.244;2022-07-29T08:06:57;2.42;;;0.32;;
49854;SDS011;35752;52.164;21.244;2022-07-29T08:09:24;3.28;;;0.68;;
49854;SDS011;35752;52.164;21.244;2022-07-29T08:11:51;1.80;;;0.52;;
49854;SDS011;35752;52.164;21.244;2022-07-29T08:14:17;12.40;;;1.60;;
49854;SDS011;35752;52.164;21.244;2022-07-29T08:16:43;3.25;;;0.55;;
49854;SDS011;35752;52.164;21.244;2022-07-29T08:19:09;2.05;;;0.50;;
49854;SDS011;35752;52.164;21.244;2022-07-29T08:21:35;2.67;;;0.40;;
49854;SDS011;35752;52.164;21.244;2022-07-29T08:24:01;2.75;;;0.60;;
49854;SDS011;35752;52.164;21.244;2022-07-29T08:26:46;4.22;;;0.85;;
49854;SDS011;35752;52.164;21.244;2022-07-29T08:29:12;3.22;;;0.63;;
49854;SDS011;35752;52.164;21.244;2022-07-29T08:31:38;3.05;;;0.57;;
49854;SDS011;35752;52.164;21.244;2022-07-29T08:34:04;2.72;;;0.60;;
49854;SDS011;35752;52.164;21.244;2022-07-29T08:36:31;6.25;;;0.65;;
49854;SDS011;35752;52.164;21.244;2022-07-29T08:38:58;0.88;;;0.30;;
49854;SDS011;35752;52.164;21.244;2022-07-29T08:41:24;2.38;;;0.50;;
49854;SDS011;35752;52.164;21.244;2022-07-29T08:43:50;4.53;;;0.47;;
49854;SDS011;35752;52.164;21.244;2022-07-29T08:46:17;6.95;;;1.13;;
49854;SDS011;35752;52.164;21.244;2022-07-29T08:48:44;1.83;;;0.52;;
49854;SDS011;35752;52.164;21.244;2022-07-29T08:51:14;1.90;;;0.50;;
49854;SDS011;35752;52.164;21.244;2022-07-29T08:53:42;3.05;;;0.77;;
49854;SDS011;35752;52.164;21.244;2022-07-29T08:56:13;5.22;;;0.63;;
49854;SDS011;35752;52.164;21.244;2022-07-29T08:58:43;4.88;;;0.65;;
49854;SDS011;35752;52.164;21.244;2022-07-29T09:01:10;11.55;;;1.35;;
49854;SDS011;35752;52.164;21.244;2022-07-29T09:03:40;5.13;;;0.70;;
49854;SDS011;35752;52.164;21.244;2022-07-29T09:06:08;6.20;;;0.57;;
49854;SDS011;35752;52.164;21.244;2022-07-29T09:08:37;2.40;;;0.30;;
49854;SDS011;35752;52.164;21.244;2022-07-29T09:11:03;2.00;;;0.68;;
49854;SDS011;35752;52.164;21.244;2022-07-29T09:13:29;1.85;;;0.30;;
49854;SDS011;35752;52.164;21.244;2022-07-29T09:15:55;2.92;;;0.50;;
49854;SDS011;35752;52.164;21.244;2022-07-29T09:21:03;6.32;;;0.82;;
49854;SDS011;35752;52.164;21.244;2022-07-29T09:26:30;3.53;;;0.40;;
49854;SDS011;35752;52.164;21.244;2022-07-29T09:28:57;3.58;;;0.52;;
49854;SDS011;35752;52.164;21.244;2022-07-29T09:31:43;1.75;;;0.60;;
49854;SDS011;35752;52.164;21.244;2022-07-29T09:34:10;3.90;;;0.57;;
49854;SDS011;35752;52.164;21.244;2022-07-29T09:36:40;4.43;;;0.40;;
49854;SDS011;35752;52.164;21.244;2022-07-29T09:39:07;2.03;;;0.60;;
49854;SDS011;35752;52.164;21.244;2022-07-29T09:41:49;2.15;;;0.40;;
49854;SDS011;35752;52.164;21.244;2022-07-29T09:44:19;1.95;;;0.40;;
49854;SDS011;35752;52.164;21.244;2022-07-29T09:49:19;3.45;;;0.50;;
49854;SDS011;35752;52.164;21.244;2022-07-29T09:51:45;1.15;;;0.30;;
49854;SDS011;35752;52.164;21.244;2022-07-29T09:54:26;4.00;;;0.65;;
49854;SDS011;35752;52.164;21.244;2022-07-29T09:56:53;5.40;;;0.30;;
49854;SDS011;35752;52.164;21.244;2022-07-29T09:59:19;4.60;;;0.60;;
49854;SDS011;35752;52.164;21.244;2022-07-29T10:01:48;2.75;;;0.45;;
49854;SDS011;35752;52.164;21.244;2022-07-29T10:04:17;1.92;;;0.50;;
49854;SDS011;35752;52.164;21.244;2022-07-29T10:06:59;3.22;;;0.63;;
49854;SDS011;35752;52.164;21.244;2022-07-29T10:09:27;5.15;;;0.40;;
49854;SDS011;35752;52.164;21.244;2022-07-29T10:12:05;2.95;;;0.57;;
49854;SDS011;35752;52.164;21.244;2022-07-29T10:14:39;2.08;;;0.40;;
49854;SDS011;35752;52.164;21.244;2022-07-29T10:17:06;1.15;;;0.30;;
49854;SDS011;35752;52.164;21.244;2022-07-29T10:19:34;1.67;;;0.60;;
49854;SDS011;35752;52.164;21.244;2022-07-29T10:22:02;2.35;;;0.30;;
49854;SDS011;35752;52.164;21.244;2022-07-29T10:24:31;4.00;;;0.30;;
49854;SDS011;35752;52.164;21.244;2022-07-29T10:26:57;2.83;;;0.50;;
49854;SDS011;35752;52.164;21.244;2022-07-29T10:29:25;2.58;;;0.40;;
49854;SDS011;35752;52.164;21.244;2022-07-29T10:43:09;5.70;;;0.50;;
49854;SDS011;35752;52.164;21.244;2022-07-29T10:45:47;2.70;;;0.40;;
49854;SDS011;35752;52.164;21.244;2022-07-29T10:48:14;1.55;;;0.50;;
49854;SDS011;35752;52.164;21.244;2022-07-29T10:50:57;1.33;;;0.40;;
49854;SDS011;35752;52.164;21.244;2022-07-29T10:53:45;1.30;;;0.30;;
49854;SDS011;35752;52.164;21.244;2022-07-29T10:56:26;3.72;;;0.30;;
49854;SDS011;35752;52.164;21.244;2022-07-29T11:01:51;2.47;;;0.30;;
49854;SDS011;35752;52.164;21.244;2022-07-29T11:07:10;1.88;;;0.35;;
49854;SDS011;35752;52.164;21.244;2022-07-29T11:09:37;2.03;;;0.40;;
49854;SDS011;35752;52.164;21.244;2022-07-29T11:12:04;0.95;;;0.20;;
49854;SDS011;35752;52.164;21.244;2022-07-29T11:14:55;4.15;;;0.43;;
49854;SDS011;35752;52.164;21.244;2022-07-29T11:17:25;5.00;;;0.30;;
49854;SDS011;35752;52.164;21.244;2022-07-29T11:19:51;2.80;;;0.30;;
49854;SDS011;35752;52.164;21.244;2022-07-29T11:22:37;1.17;;;0.30;;
49854;SDS011;35752;52.164;21.244;2022-07-29T11:25:15;1.98;;;0.35;;
49854;SDS011;35752;52.164;21.244;2022-07-29T11:27:41;2.90;;;0.30;;
49854;SDS011;35752;52.164;21.244;2022-07-29T11:30:09;1.70;;;0.40;;
49854;SDS011;35752;52.164;21.244;2022-07-29T11:32:37;1.85;;;0.30;;
49854;SDS011;35752;52.164;21.244;2022-07-29T11:37:37;1.38;;;0.30;;
49854;SDS011;35752;52.164;21.244;2022-07-29T11:47:59;3.58;;;0.40;;
49854;SDS011;35752;52.164;21.244;2022-07-29T11:50:34;2.88;;;0.32;;
49854;SDS011;35752;52.164;21.244;2022-07-29T11:53:03;1.02;;;0.20;;
49854;SDS011;35752;52.164;21.244;2022-07-29T11:55:37;1.88;;;0.32;;
49854;SDS011;35752;52.164;21.244;2022-07-29T11:58:04;0.68;;;0.17;;
49854;SDS011;35752;52.164;21.244;2022-07-29T12:00:31;1.88;;;0.45;;
49854;SDS011;35752;52.164;21.244;2022-07-29T12:03:00;1.27;;;0.35;;
49854;SDS011;35752;52.164;21.244;2022-07-29T12:05:36;3.15;;;0.35;;
49854;SDS011;35752;52.164;21.244;2022-07-29T12:08:11;63.15;;;4.90;;
49854;SDS011;35752;52.164;21.244;2022-07-29T12:10:43;3.00;;;0.30;;
49854;SDS011;35752;52.164;21.244;2022-07-29T12:13:11;3.25;;;0.30;;
49854;SDS011;35752;52.164;21.244;2022-07-29T12:15:37;1.38;;;0.20;;
49854;SDS011;35752;52.164;21.244;2022-07-29T12:18:13;1.05;;;0.20;;
49854;SDS011;35752;52.164;21.244;2022-07-29T12:20:40;4.97;;;0.43;;
49854;SDS011;35752;52.164;21.244;2022-07-29T12:23:07;2.80;;;0.30;;
49854;SDS011;35752;52.164;21.244;2022-07-29T12:25:34;2.15;;;0.30;;
49854;SDS011;35752;52.164;21.244;2022-07-29T12:28:03;1.98;;;0.30;;
49854;SDS011;35752;52.164;21.244;2022-07-29T12:30:41;2.72;;;0.50;;
49854;SDS011;35752;52.164;21.244;2022-07-29T12:35:40;2.65;;;0.50;;
49854;SDS011;35752;52.164;21.244;2022-07-29T12:38:09;3.70;;;0.30;;
49854;SDS011;35752;52.164;21.244;2022-07-29T12:40:36;1.55;;;0.35;;
49854;SDS011;35752;52.164;21.244;2022-07-29T12:43:09;1.80;;;0.30;;
49854;SDS011;35752;52.164;21.244;2022-07-29T12:45:45;4.40;;;0.40;;
49854;SDS011;35752;52.164;21.244;2022-07-29T12:48:13;2.90;;;0.40;;
49854;SDS011;35752;52.164;21.244;2022-07-29T12:50:59;1.90;;;0.40;;
49854;SDS011;35752;52.164;21.244;2022-07-29T12:53:26;2.03;;;0.35;;
49854;SDS011;35752;52.164;21.244;2022-07-29T12:55:53;4.05;;;0.35;;
49854;SDS011;35752;52.164;21.244;2022-07-29T12:58:34;2.08;;;0.50;;
49854;SDS011;35752;52.164;21.244;2022-07-29T13:03:46;3.83;;;0.30;;
49854;SDS011;35752;52.164;21.244;2022-07-29T13:06:31;9.98;;;0.50;;
49854;SDS011;35752;52.164;21.244;2022-07-29T13:09:00;5.38;;;0.35;;
49854;SDS011;35752;52.164;21.244;2022-07-29T13:11:28;8.75;;;0.50;;
49854;SDS011;35752;52.164;21.244;2022-07-29T13:13:58;1.60;;;0.22;;
49854;SDS011;35752;52.164;21.244;2022-07-29T13:16:24;1.50;;;0.25;;
49854;SDS011;35752;52.164;21.244;2022-07-29T13:19:02;0.90;;;0.30;;
49854;SDS011;35752;52.164;21.244;2022-07-29T13:21:29;4.40;;;0.63;;
49854;SDS011;35752;52.164;21.244;2022-07-29T13:23:55;2.60;;;0.30;;
49854;SDS011;35752;52.164;21.244;2022-07-29T13:26:20;4.95;;;0.50;;
49854;SDS011;35752;52.164;21.244;2022-07-29T13:28:46;2.20;;;0.30;;
49854;SDS011;35752;52.164;21.244;2022-07-29T13:31:12;3.13;;;0.73;;
49854;SDS011;35752;52.164;21.244;2022-07-29T13:33:37;0.85;;;0.38;;
49854;SDS011;35752;52.164;21.244;2022-07-29T13:36:03;1.00;;;0.38;;
49854;SDS011;35752;52.164;21.244;2022-07-29T13:38:29;4.63;;;0.45;;
49854;SDS011;35752;52.164;21.244;2022-07-29T13:40:54;2.05;;;0.20;;
49854;SDS011;35752;52.164;21.244;2022-07-29T13:43:20;2.97;;;0.40;;
49854;SDS011;35752;52.164;21.244;2022-07-29T13:45:46;2.40;;;0.40;;
49854;SDS011;35752;52.164;21.244;2022-07-29T13:48:11;1.73;;;0.30;;
49854;SDS011;35752;52.164;21.244;2022-07-29T13:50:37;2.13;;;0.30;;
49854;SDS011;35752;52.164;21.244;2022-07-29T13:53:03;1.60;;;0.40;;
49854;SDS011;35752;52.164;21.244;2022-07-29T13:55:29;1.13;;;0.30;;
49854;SDS011;35752;52.164;21.244;2022-07-29T13:57:54;2.83;;;0.40;;
49854;SDS011;35752;52.164;21.244;2022-07-29T14:00:20;2.80;;;0.52;;
49854;SDS011;35752;52.164;21.244;2022-07-29T14:02:46;1.30;;;0.40;;
49854;SDS011;35752;52.164;21.244;2022-07-29T14:05:12;2.30;;;0.25;;
49854;SDS011;35752;52.164;21.244;2022-07-29T14:07:38;4.00;;;0.38;;
49854;SDS011;35752;52.164;21.244;2022-07-29T14:10:04;3.03;;;0.40;;
49854;SDS011;35752;52.164;21.244;2022-07-29T14:12:30;1.95;;;0.20;;
49854;SDS011;35752;52.164;21.244;2022-07-29T14:14:56;2.65;;;0.40;;
49854;SDS011;35752;52.164;21.244;2022-07-29T14:17:21;1.65;;;0.30;;
49854;SDS011;35752;52.164;21.244;2022-07-29T14:19:48;5.10;;;0.52;;
49854;SDS011;35752;52.164;21.244;2022-07-29T14:22:13;2.63;;;0.30;;
49854;SDS011;35752;52.164;21.244;2022-07-29T14:24:39;2.25;;;0.40;;
49854;SDS011;35752;52.164;21.244;2022-07-29T14:27:05;3.65;;;0.40;;
49854;SDS011;35752;52.164;21.244;2022-07-29T14:29:32;1.58;;;0.38;;
49854;SDS011;35752;52.164;21.244;2022-07-29T14:31:58;1.30;;;0.20;;
49854;SDS011;35752;52.164;21.244;2022-07-29T14:34:24;2.42;;;0.30;;
49854;SDS011;35752;52.164;21.244;2022-07-29T14:36:50;2.45;;;0.20;;
49854;SDS011;35752;52.164;21.244;2022-07-29T14:39:16;1.45;;;0.30;;
49854;SDS011;35752;52.164;21.244;2022-07-29T14:41:42;3.53;;;0.35;;
49854;SDS011;35752;52.164;21.244;2022-07-29T14:44:08;15.93;;;1.05;;
49854;SDS011;35752;52.164;21.244;2022-07-29T14:46:34;3.58;;;0.40;;
49854;SDS011;35752;52.164;21.244;2022-07-29T14:49:00;4.72;;;0.43;;
49854;SDS011;35752;52.164;21.244;2022-07-29T14:51:25;1.65;;;0.22;;
49854;SDS011;35752;52.164;21.244;2022-07-29T14:53:51;24.90;;;0.88;;
49854;SDS011;35752;52.164;21.244;2022-07-29T14:56:17;10.55;;;0.57;;
49854;SDS011;35752;52.164;21.244;2022-07-29T14:58:42;2.40;;;0.30;;
49854;SDS011;35752;52.164;21.244;2022-07-29T15:01:08;1.25;;;0.22;;
49854;SDS011;35752;52.164;21.244;2022-07-29T15:03:34;1.25;;;0.22;;
49854;SDS011;35752;52.164;21.244;2022-07-29T15:05:59;3.78;;;0.30;;
49854;SDS011;35752;52.164;21.244;2022-07-29T15:08:25;1.58;;;0.30;;
49854;SDS011;35752;52.164;21.244;2022-07-29T15:10:53;3.97;;;0.30;;
49854;SDS011;35752;52.164;21.244;2022-07-29T15:13:18;2.40;;;0.50;;
49854;SDS011;35752;52.164;21.244;2022-07-29T15:15:44;3.83;;;0.60;;
49854;SDS011;35752;52.164;21.244;2022-07-29T15:18:10;1.42;;;0.20;;
49854;SDS011;35752;52.164;21.244;2022-07-29T15:20:36;1.98;;;0.30;;
49854;SDS011;35752;52.164;21.244;2022-07-29T15:23:02;0.90;;;0.47;;
49854;SDS011;35752;52.164;21.244;2022-07-29T15:25:28;3.28;;;0.30;;
49854;SDS011;35752;52.164;21.244;2022-07-29T15:27:53;3.00;;;0.70;;
49854;SDS011;35752;52.164;21.244;2022-07-29T15:30:19;2.22;;;0.30;;
49854;SDS011;35752;52.164;21.244;2022-07-29T15:32:45;1.48;;;0.40;;
49854;SDS011;35752;52.164;21.244;2022-07-29T15:35:11;5.05;;;0.40;;